Time;durP1;ratioP1;P1;durP2;ratioP2;P2;SDS_P1;SDS_P2;PMS_P1;PMS_P2;Temp;Humidity;BMP_temperature;BMP_pressure;BME280_temperature;BME280_humidity;BME280_pressure;Samples;Min_cycle;Max_cycle;Signal;HPM_P1;HPM_P2
2023/04/23 00:01:59;;;;;;;0.60;0.60;;;10.80;99.90;;;;;;5005189;28;21020;-71
2023/04/23 00:04:27;;;;;;;2.00;0.73;;;10.80;99.90;;;;;;5005342;28;20439;-71
2023/04/23 00:06:59;;;;;;;0.63;0.63;;;10.80;99.90;;;;;;5004921;28;20429;-71
2023/04/23 00:09:30;;;;;;;0.50;0.50;;;10.80;99.90;;;;;;5003972;28;20443;-71
2023/04/23 00:11:59;;;;;;;0.65;0.65;;;10.80;99.90;;;;;;4990932;28;20453;-71
2023/04/23 00:14:26;;;;;;;1.10;1.00;;;10.80;99.90;;;;;;5008078;28;20432;-71
2023/04/23 00:16:53;;;;;;;0.70;0.70;;;10.80;99.90;;;;;;5005016;28;20445;-72
2023/04/23 00:19:45;;;;;;;0.88;0.77;;;10.80;99.90;;;;;;5000747;28;20469;-72
2023/04/23 00:22:19;;;;;;;0.65;0.65;;;10.80;99.90;;;;;;5001665;28;20459;-72
2023/04/23 00:24:46;;;;;;;1.33;0.95;;;10.80;99.90;;;;;;5005581;28;20424;-72
2023/04/23 00:27:12;;;;;;;0.98;0.98;;;10.80;99.90;;;;;;5004727;28;20996;-72
2023/04/23 00:29:40;;;;;;;1.20;0.80;;;10.80;99.90;;;;;;4988592;28;20440;-72
2023/04/23 00:32:13;;;;;;;2.47;0.80;;;10.80;99.90;;;;;;4983600;28;20553;-72
2023/04/23 00:35:04;;;;;;;6.10;0.85;;;10.80;99.90;;;;;;5003251;28;20485;-72
2023/04/23 00:37:55;;;;;;;1.00;0.85;;;10.80;99.90;;;;;;5005909;28;20449;-73
2023/04/23 00:40:47;;;;;;;0.57;0.52;;;10.80;99.90;;;;;;5000886;28;20879;-73
2023/04/23 00:43:20;;;;;;;0.40;0.40;;;10.80;99.90;;;;;;5000698;28;20436;-73
2023/04/23 00:45:47;;;;;;;0.60;0.60;;;10.80;99.90;;;;;;5003125;28;20438;-73
2023/04/23 00:48:17;;;;;;;0.68;0.68;;;10.70;99.90;;;;;;5007225;28;20435;-73
2023/04/23 00:50:47;;;;;;;0.60;0.60;;;10.70;99.90;;;;;;5000902;28;20449;-73
2023/04/23 00:53:19;;;;;;;1.02;1.02;;;10.70;99.90;;;;;;5004211;28;20443;-73
2023/04/23 00:55:50;;;;;;;1.65;1.15;;;10.80;99.90;;;;;;4994801;28;20448;-73
2023/04/23 00:58:17;;;;;;;1.10;0.82;;;10.70;99.90;;;;;;4984597;28;20457;-73
2023/04/23 01:00:47;;;;;;;0.98;0.98;;;10.70;99.90;;;;;;4980362;28;20803;-73
2023/04/23 01:03:17;;;;;;;0.88;0.88;;;10.70;99.90;;;;;;4997090;28;20943;-73
2023/04/23 01:05:44;;;;;;;1.23;1.08;;;10.70;99.90;;;;;;4994908;28;20472;-73
2023/04/23 01:08:14;;;;;;;0.83;0.83;;;10.70;99.90;;;;;;4999508;28;20816;-73
2023/04/23 01:10:45;;;;;;;1.25;0.85;;;10.70;99.90;;;;;;4997618;28;20455;-73
2023/04/23 01:13:15;;;;;;;1.17;1.02;;;10.70;99.90;;;;;;4986947;28;20495;-73
2023/04/23 01:15:43;;;;;;;0.95;0.95;;;10.70;99.90;;;;;;4995480;28;20809;-73
2023/04/23 01:18:11;;;;;;;1.88;1.00;;;10.70;99.90;;;;;;4980939;28;20443;-73
2023/04/23 01:20:38;;;;;;;1.13;1.00;;;10.60;99.90;;;;;;4995903;28;20457;-73
2023/04/23 01:23:05;;;;;;;1.25;1.15;;;10.70;99.90;;;;;;4983544;28;20544;-73
2023/04/23 01:25:33;;;;;;;0.90;0.90;;;10.60;99.90;;;;;;4994983;28;20435;-73
2023/04/23 01:28:06;;;;;;;1.63;1.52;;;10.60;99.90;;;;;;5000411;28;20447;-73
2023/04/23 01:30:34;;;;;;;0.90;0.90;;;10.60;99.90;;;;;;4986139;28;20440;-74
2023/04/23 01:33:02;;;;;;;0.95;0.95;;;10.60;99.90;;;;;;4999697;28;20432;-73
2023/04/23 01:35:34;;;;;;;1.40;0.93;;;10.60;99.90;;;;;;4996426;28;20954;-73
2023/04/23 01:38:08;;;;;;;1.30;1.20;;;10.60;99.90;;;;;;4998819;28;20732;-73
2023/04/23 01:40:35;;;;;;;2.38;1.42;;;10.60;99.90;;;;;;4986567;28;20434;-73
2023/04/23 01:43:03;;;;;;;0.90;0.90;;;10.60;99.90;;;;;;5001615;28;20450;-72
2023/04/23 01:45:30;;;;;;;1.00;1.00;;;10.60;99.90;;;;;;5001477;28;20437;-73
2023/04/23 01:47:59;;;;;;;0.85;0.85;;;10.60;99.90;;;;;;5000970;28;20470;-73
2023/04/23 01:50:26;;;;;;;1.25;1.13;;;10.60;99.90;;;;;;4995552;28;21095;-73
2023/04/23 01:52:53;;;;;;;1.37;1.33;;;10.60;99.90;;;;;;4978983;28;20442;-72
2023/04/23 01:55:20;;;;;;;0.88;0.88;;;10.60;99.90;;;;;;4980488;28;20438;-73
2023/04/23 01:57:47;;;;;;;1.52;1.00;;;10.60;99.90;;;;;;4997826;28;20935;-73
2023/04/23 02:00:14;;;;;;;1.13;1.13;;;10.60;99.90;;;;;;4995379;28;20485;-72
2023/04/23 02:02:42;;;;;;;1.27;1.17;;;10.60;99.90;;;;;;4994928;28;20444;-70
2023/04/23 02:05:13;;;;;;;0.93;0.93;;;10.60;99.90;;;;;;4998842;28;20467;-71
2023/04/23 02:07:40;;;;;;;1.58;1.10;;;10.60;99.90;;;;;;4997649;28;20448;-70
2023/04/23 02:10:07;;;;;;;2.10;1.25;;;10.60;99.90;;;;;;4998544;28;20432;-71
2023/04/23 02:12:35;;;;;;;1.10;1.07;;;10.60;99.90;;;;;;4998665;28;20442;-71
2023/04/23 02:15:04;;;;;;;1.02;0.93;;;10.60;99.90;;;;;;4996556;28;20443;-71
2023/04/23 02:17:30;;;;;;;1.83;1.73;;;10.60;99.90;;;;;;4981693;28;20443;-71
2023/04/23 02:19:57;;;;;;;0.80;0.80;;;10.60;99.90;;;;;;4996895;28;20484;-71
2023/04/23 02:22:25;;;;;;;0.77;0.77;;;10.60;99.90;;;;;;4999293;28;20957;-71
2023/04/23 02:24:52;;;;;;;1.25;0.90;;;10.60;99.90;;;;;;4996031;28;20443;-71
2023/04/23 02:27:20;;;;;;;0.90;0.90;;;10.50;99.90;;;;;;4996699;28;20437;-70
2023/04/23 02:29:48;;;;;;;1.63;1.08;;;10.50;99.90;;;;;;4999731;28;20437;-71
2023/04/23 02:32:14;;;;;;;2.70;0.95;;;10.50;99.90;;;;;;4998780;28;20445;-71
2023/04/23 02:34:41;;;;;;;0.82;0.82;;;10.50;99.90;;;;;;5000132;28;20439;-71
2023/04/23 02:37:09;;;;;;;1.02;1.00;;;10.50;99.90;;;;;;5001154;28;20436;-70
2023/04/23 02:39:37;;;;;;;4.80;1.13;;;10.50;99.90;;;;;;4985365;28;20872;-71
2023/04/23 02:42:05;;;;;;;0.75;0.75;;;10.50;99.90;;;;;;5001215;28;20439;-70
2023/04/23 02:44:31;;;;;;;1.80;1.00;;;10.50;99.90;;;;;;4979631;28;20432;-70
2023/04/23 02:46:58;;;;;;;2.80;0.95;;;10.50;99.90;;;;;;4982854;28;20458;-70
2023/04/23 02:49:25;;;;;;;1.75;1.10;;;10.50;99.90;;;;;;4999944;28;20924;-70
2023/04/23 02:51:52;;;;;;;1.63;0.60;;;10.50;99.90;;;;;;5002877;28;20463;-70
2023/04/23 02:54:19;;;;;;;0.90;0.90;;;10.50;99.90;;;;;;5001029;28;20440;-70
2023/04/23 02:56:45;;;;;;;0.85;0.85;;;10.40;99.90;;;;;;5002329;28;20447;-70
2023/04/23 02:59:12;;;;;;;0.77;0.77;;;10.40;99.90;;;;;;4999051;28;20442;-70
2023/04/23 03:01:40;;;;;;;1.40;1.17;;;10.40;99.90;;;;;;5001188;28;20435;-73
2023/04/23 03:04:11;;;;;;;0.70;0.70;;;10.40;99.90;;;;;;5001085;28;20428;-72
2023/04/23 03:06:38;;;;;;;1.02;1.02;;;10.40;99.90;;;;;;4999303;28;20446;-70
2023/04/23 03:09:05;;;;;;;1.90;1.33;;;10.40;99.90;;;;;;4999995;28;20917;-70
2023/04/23 03:11:33;;;;;;;1.08;1.08;;;10.40;99.90;;;;;;4998441;28;20439;-70
2023/04/23 03:13:59;;;;;;;1.03;1.03;;;10.40;99.90;;;;;;4981788;28;20439;-72
2023/04/23 03:16:27;;;;;;;0.73;0.73;;;10.40;99.90;;;;;;4983407;28;20809;-72
2023/04/23 03:18:54;;;;;;;1.38;1.30;;;10.40;99.90;;;;;;5000515;28;21070;-70
2023/04/23 03:21:21;;;;;;;0.88;0.88;;;10.40;99.90;;;;;;4997034;28;20454;-70
2023/04/23 03:23:48;;;;;;;4.60;1.27;;;10.40;99.90;;;;;;4997432;28;20439;-70
2023/04/23 03:26:15;;;;;;;1.03;1.03;;;10.40;99.90;;;;;;4996878;28;20441;-70
2023/04/23 03:28:41;;;;;;;1.20;1.08;;;10.40;99.90;;;;;;4979916;28;20442;-70
2023/04/23 03:31:08;;;;;;;0.65;0.65;;;10.40;99.90;;;;;;4985596;28;20439;-71
2023/04/23 03:33:35;;;;;;;0.88;0.80;;;10.30;99.90;;;;;;4998837;28;20441;-71
2023/04/23 03:36:06;;;;;;;1.30;1.20;;;10.40;99.90;;;;;;4998603;28;20488;-70
2023/04/23 03:38:32;;;;;;;1.30;1.20;;;10.40;99.90;;;;;;4999781;28;20587;-71
2023/04/23 03:40:59;;;;;;;0.83;0.83;;;10.40;99.90;;;;;;4982043;28;20432;-70
2023/04/23 03:43:26;;;;;;;1.23;1.13;;;10.40;99.90;;;;;;4998328;28;20453;-72
2023/04/23 03:45:53;;;;;;;1.08;0.95;;;10.40;99.90;;;;;;5000660;28;20464;-71
2023/04/23 03:48:20;;;;;;;1.30;0.68;;;10.30;99.90;;;;;;4998696;28;20566;-72
2023/04/23 03:50:47;;;;;;;1.03;0.87;;;10.30;99.90;;;;;;4998322;28;20448;-72
2023/04/23 03:53:14;;;;;;;1.10;1.05;;;10.30;99.90;;;;;;4985240;28;20588;-71
2023/04/23 03:55:40;;;;;;;0.70;0.70;;;10.30;99.90;;;;;;4997094;28;20436;-71
2023/04/23 03:58:08;;;;;;;0.80;0.80;;;10.30;99.90;;;;;;4998712;28;20436;-71
2023/04/23 04:00:35;;;;;;;1.00;0.90;;;10.30;99.90;;;;;;4981621;28;20515;-71
2023/04/23 04:03:03;;;;;;;1.00;1.00;;;10.30;99.90;;;;;;4997683;28;21093;-71
2023/04/23 04:05:30;;;;;;;1.17;0.80;;;10.30;99.90;;;;;;4979423;28;20446;-71
2023/04/23 04:07:56;;;;;;;0.88;0.88;;;10.40;99.90;;;;;;4997966;28;20445;-71
2023/04/23 04:10:23;;;;;;;1.20;1.10;;;10.30;99.90;;;;;;4998197;28;20976;-71
2023/04/23 04:12:50;;;;;;;1.80;1.20;;;10.30;99.90;;;;;;5000710;28;20449;-71
2023/04/23 04:15:19;;;;;;;0.88;0.88;;;10.30;99.90;;;;;;4998275;28;20502;-70
2023/04/23 04:17:46;;;;;;;1.80;1.10;;;10.30;99.90;;;;;;4996527;28;20490;-71
2023/04/23 04:20:13;;;;;;;1.13;1.00;;;10.20;99.90;;;;;;4997912;28;20466;-70
2023/04/23 04:22:41;;;;;;;1.30;1.20;;;10.20;99.90;;;;;;4984071;28;20434;-70
2023/04/23 04:25:08;;;;;;;0.65;0.65;;;10.20;99.90;;;;;;5001350;28;20451;-70
2023/04/23 04:27:36;;;;;;;1.50;1.20;;;10.20;99.90;;;;;;4980486;28;20447;-71
2023/04/23 04:30:04;;;;;;;0.88;0.88;;;10.20;99.90;;;;;;5000441;28;20467;-70
2023/04/23 04:32:31;;;;;;;1.37;1.27;;;10.20;99.90;;;;;;4997002;28;20647;-70
2023/04/23 04:34:58;;;;;;;1.58;1.48;;;10.30;99.90;;;;;;4999461;28;20451;-71
2023/04/23 04:37:26;;;;;;;1.38;1.27;;;10.20;99.90;;;;;;5000598;28;20439;-70
2023/04/23 04:39:54;;;;;;;0.93;0.93;;;10.20;99.90;;;;;;4984691;28;20432;-71
2023/04/23 04:42:21;;;;;;;1.52;1.42;;;10.20;99.90;;;;;;4981405;28;20808;-70
2023/04/23 04:44:47;;;;;;;0.98;0.98;;;10.20;99.90;;;;;;4997578;28;20444;-70
2023/04/23 04:47:15;;;;;;;1.35;0.90;;;10.30;99.90;;;;;;4998033;28;20438;-70
2023/04/23 04:49:41;;;;;;;1.42;1.15;;;10.30;99.90;;;;;;4981583;28;20985;-70
2023/04/23 04:52:08;;;;;;;0.93;0.93;;;10.20;99.90;;;;;;4999781;28;20431;-70
2023/04/23 04:54:35;;;;;;;1.13;1.13;;;10.20;99.90;;;;;;4998269;28;20446;-70
2023/04/23 04:57:02;;;;;;;1.27;1.08;;;10.20;99.90;;;;;;4999724;28;20432;-70
2023/04/23 04:59:29;;;;;;;0.90;0.83;;;10.20;99.90;;;;;;4998047;28;20445;-71
2023/04/23 05:01:56;;;;;;;1.17;1.00;;;10.20;99.90;;;;;;4996454;28;21054;-70
2023/04/23 05:04:23;;;;;;;0.77;0.60;;;10.30;99.90;;;;;;5000537;28;20638;-71
2023/04/23 05:06:50;;;;;;;1.40;1.15;;;10.40;99.90;;;;;;4999553;28;21063;-71
2023/04/23 05:09:17;;;;;;;1.02;1.02;;;10.50;99.90;;;;;;5001154;28;20442;-70
2023/04/23 05:11:45;;;;;;;0.88;0.88;;;10.60;99.90;;;;;;4985143;28;20887;-71
2023/04/23 05:14:15;;;;;;;0.98;0.98;;;10.70;99.90;;;;;;4997615;28;21059;-70
2023/04/23 05:16:42;;;;;;;1.98;1.15;;;10.70;99.90;;;;;;4998802;28;20841;-71
2023/04/23 05:19:09;;;;;;;1.30;0.80;;;10.70;99.90;;;;;;4982598;28;20428;-70
2023/04/23 05:21:36;;;;;;;0.80;0.80;;;10.70;99.90;;;;;;4998579;28;20479;-70
2023/04/23 05:24:03;;;;;;;0.82;0.82;;;10.90;99.90;;;;;;4997831;28;20440;-70
2023/04/23 05:26:29;;;;;;;1.17;1.08;;;10.90;99.90;;;;;;4995229;28;20940;-70
2023/04/23 05:28:58;;;;;;;1.30;1.20;;;10.90;99.90;;;;;;5002786;28;20513;-70
2023/04/23 05:31:25;;;;;;;1.05;1.05;;;10.90;99.90;;;;;;4990836;28;20947;-70
2023/04/23 05:33:55;;;;;;;1.13;1.02;;;10.80;99.90;;;;;;4996897;28;20450;-70
2023/04/23 05:36:22;;;;;;;0.95;0.95;;;10.80;99.90;;;;;;4994360;28;20444;-70
2023/04/23 05:38:48;;;;;;;1.20;1.10;;;10.70;99.90;;;;;;4998724;28;20450;-70
2023/04/23 05:41:17;;;;;;;0.98;0.98;;;10.70;99.90;;;;;;4999016;28;20443;-70
2023/04/23 05:43:47;;;;;;;0.82;0.82;;;10.80;99.90;;;;;;4980172;28;20523;-71
2023/04/23 05:46:14;;;;;;;1.52;0.88;;;10.80;99.90;;;;;;4997819;28;20434;-71
2023/04/23 05:48:42;;;;;;;0.90;0.90;;;10.90;99.90;;;;;;4997094;28;20441;-71
2023/04/23 05:51:10;;;;;;;1.30;0.90;;;11.20;99.90;;;;;;4996834;28;20522;-70
2023/04/23 05:53:37;;;;;;;1.10;0.90;;;11.60;99.90;;;;;;4981275;28;20923;-70
2023/04/23 05:56:03;;;;;;;1.42;1.27;;;11.90;99.90;;;;;;4993875;28;20536;-70
2023/04/23 05:58:31;;;;;;;1.13;0.90;;;12.20;99.90;;;;;;4998275;28;20960;-70
2023/04/23 06:00:57;;;;;;;0.77;0.77;;;12.40;99.90;;;;;;4997967;28;20931;-71
2023/04/23 06:03:25;;;;;;;1.00;0.90;;;12.50;99.90;;;;;;5001583;28;20865;-70
2023/04/23 06:05:52;;;;;;;0.82;0.82;;;12.70;99.90;;;;;;4996535;28;20439;-71
2023/04/23 06:08:19;;;;;;;0.80;0.70;;;12.90;99.90;;;;;;4992478;28;20446;-71
2023/04/23 06:10:46;;;;;;;1.00;1.00;;;13.10;99.90;;;;;;5000906;28;20485;-71
2023/04/23 06:13:13;;;;;;;0.75;0.75;;;13.50;99.90;;;;;;5002377;28;20442;-71
2023/04/23 06:15:43;;;;;;;0.90;0.90;;;13.90;99.90;;;;;;5001116;28;20484;-71
2023/04/23 06:18:11;;;;;;;0.65;0.65;;;14.20;99.90;;;;;;5002187;28;21033;-71
2023/04/23 06:20:38;;;;;;;0.90;0.90;;;14.30;99.90;;;;;;4986330;28;20436;-71
2023/04/23 06:23:05;;;;;;;0.60;0.60;;;14.50;99.90;;;;;;5000958;28;20441;-71
2023/04/23 06:25:32;;;;;;;0.65;0.65;;;14.70;99.90;;;;;;4999972;28;20571;-71
2023/04/23 06:27:58;;;;;;;0.70;0.70;;;14.90;99.90;;;;;;5001046;28;20905;-71
2023/04/23 06:30:25;;;;;;;0.70;0.70;;;15.20;99.90;;;;;;4997168;28;20443;-71
2023/04/23 06:32:52;;;;;;;0.70;0.70;;;15.40;99.90;;;;;;5002147;28;20486;-71
2023/04/23 06:35:20;;;;;;;0.60;0.60;;;15.40;99.90;;;;;;5000731;28;20926;-71
2023/04/23 06:37:47;;;;;;;0.60;0.60;;;15.30;99.90;;;;;;4999928;28;20444;-71
2023/04/23 06:40:14;;;;;;;0.70;0.70;;;15.10;99.90;;;;;;4999696;28;20532;-71
2023/04/23 06:42:40;;;;;;;1.60;0.70;;;15.00;99.90;;;;;;4998928;28;20524;-71
2023/04/23 06:45:07;;;;;;;1.00;0.90;;;15.30;99.90;;;;;;4998859;28;20936;-71
2023/04/23 06:47:34;;;;;;;1.00;1.00;;;15.80;99.90;;;;;;4998395;28;20461;-71
2023/04/23 06:50:01;;;;;;;0.80;0.80;;;16.10;99.90;;;;;;4984034;28;20927;-71
2023/04/23 06:52:27;;;;;;;0.80;0.80;;;16.50;99.90;;;;;;5001896;28;20521;-71
2023/04/23 06:54:55;;;;;;;0.70;0.65;;;16.40;99.90;;;;;;4998106;28;20451;-71
2023/04/23 06:57:22;;;;;;;0.63;0.63;;;16.60;99.90;;;;;;4999814;28;20765;-71
2023/04/23 06:59:50;;;;;;;1.67;0.82;;;16.50;99.90;;;;;;4999994;28;20451;-71
2023/04/23 07:02:16;;;;;;;0.40;0.40;;;16.10;99.90;;;;;;4999136;28;20451;-71
2023/04/23 07:04:43;;;;;;;0.65;0.65;;;16.10;99.90;;;;;;4998719;28;20736;-71
2023/04/23 07:07:11;;;;;;;0.50;0.50;;;16.60;99.90;;;;;;5002405;28;20432;-71
2023/04/23 07:09:38;;;;;;;0.80;0.80;;;17.00;99.90;;;;;;5000551;28;20845;-71
2023/04/23 07:12:04;;;;;;;0.68;0.68;;;16.90;99.90;;;;;;5001717;28;20712;-71
2023/04/23 07:14:35;;;;;;;0.80;0.80;;;16.80;99.90;;;;;;4999364;28;20519;-71
2023/04/23 07:17:01;;;;;;;0.90;0.90;;;16.70;99.90;;;;;;4987085;28;20439;-71
2023/04/23 07:19:28;;;;;;;0.80;0.80;;;16.20;99.90;;;;;;4999404;28;20434;-71
2023/04/23 07:21:56;;;;;;;0.82;0.82;;;15.90;99.90;;;;;;5000061;28;20440;-71
2023/04/23 07:24:25;;;;;;;0.60;0.60;;;15.60;99.90;;;;;;5001181;28;20481;-71
2023/04/23 07:26:52;;;;;;;0.87;0.87;;;15.40;99.90;;;;;;5000911;28;20439;-70
2023/04/23 07:29:19;;;;;;;1.07;1.07;;;15.70;99.90;;;;;;4984974;28;20436;-70
2023/04/23 07:31:47;;;;;;;0.75;0.75;;;15.70;99.90;;;;;;4986238;28;20442;-71
2023/04/23 07:34:15;;;;;;;0.95;0.95;;;15.70;99.90;;;;;;5002413;28;20439;-71
2023/04/23 07:36:41;;;;;;;0.73;0.73;;;15.60;99.90;;;;;;4997562;28;20941;-70
2023/04/23 07:39:08;;;;;;;0.85;0.85;;;15.40;99.90;;;;;;4983264;28;20858;-71
2023/04/23 07:41:36;;;;;;;0.70;0.70;;;15.20;99.90;;;;;;4999551;28;21179;-70
2023/04/23 07:44:05;;;;;;;1.40;0.80;;;14.90;99.90;;;;;;4997383;28;20429;-70
2023/04/23 07:46:32;;;;;;;0.90;0.90;;;14.80;99.90;;;;;;4985656;28;20453;-70
2023/04/23 07:49:00;;;;;;;0.80;0.80;;;14.80;99.90;;;;;;5001542;28;20512;-70
2023/04/23 07:51:27;;;;;;;0.80;0.80;;;14.80;99.90;;;;;;5000657;28;20441;-70
2023/04/23 07:53:57;;;;;;;1.20;0.95;;;14.80;99.90;;;;;;5003605;28;20439;-70
2023/04/23 07:56:23;;;;;;;1.13;0.70;;;14.80;99.90;;;;;;4999379;28;20444;-70
2023/04/23 07:58:52;;;;;;;0.80;0.80;;;14.70;99.90;;;;;;4998620;28;20440;-70
2023/04/23 08:01:20;;;;;;;0.85;0.70;;;14.90;99.90;;;;;;4999143;28;20432;-70
2023/04/23 08:03:48;;;;;;;0.70;0.70;;;14.80;99.90;;;;;;4997185;28;20956;-70
2023/04/23 08:06:17;;;;;;;1.05;0.90;;;15.00;99.90;;;;;;5001353;28;20540;-71
2023/04/23 08:08:44;;;;;;;0.60;0.60;;;15.40;99.90;;;;;;4996644;28;20532;-70
2023/04/23 08:11:11;;;;;;;0.60;0.60;;;15.70;99.90;;;;;;5002205;28;20437;-70
2023/04/23 08:13:38;;;;;;;0.85;0.85;;;15.90;99.90;;;;;;5000902;28;21142;-70
2023/04/23 08:16:05;;;;;;;0.70;0.70;;;16.40;99.90;;;;;;4999199;28;20436;-70
2023/04/23 08:18:32;;;;;;;0.85;0.85;;;16.90;99.90;;;;;;5001662;28;20450;-70
2023/04/23 08:21:00;;;;;;;0.85;0.85;;;17.20;99.90;;;;;;5001190;28;21186;-70
2023/04/23 08:23:30;;;;;;;1.30;0.80;;;17.00;99.90;;;;;;4983943;28;20989;-70
2023/04/23 08:25:57;;;;;;;0.70;0.70;;;16.70;99.90;;;;;;4997301;28;20943;-71
2023/04/23 08:28:23;;;;;;;1.20;1.10;;;16.00;99.90;;;;;;4998367;28;20441;-70
2023/04/23 08:30:52;;;;;;;0.80;0.60;;;15.80;99.90;;;;;;5001274;28;20439;-70
2023/04/23 08:33:19;;;;;;;1.50;0.90;;;16.00;99.90;;;;;;5002164;28;20440;-70
2023/04/23 08:35:46;;;;;;;0.82;0.82;;;15.90;99.90;;;;;;4999044;28;21178;-70
2023/04/23 08:38:15;;;;;;;1.30;0.73;;;16.30;99.90;;;;;;5002480;28;20484;-71
2023/04/23 08:40:44;;;;;;;0.95;0.95;;;16.60;99.90;;;;;;4998563;28;20465;-70
2023/04/23 08:43:30;;;;;;;0.60;0.60;;;16.40;99.90;;;;;;5001578;28;20440;-70
2023/04/23 08:46:05;;;;;;;0.80;0.60;;;16.60;99.90;;;;;;5000804;28;20439;-70
2023/04/23 08:48:33;;;;;;;0.90;0.90;;;16.70;99.90;;;;;;5000583;28;20440;-70
2023/04/23 08:51:03;;;;;;;0.70;0.70;;;16.90;99.90;;;;;;4999978;28;20440;-70
2023/04/23 08:53:32;;;;;;;0.70;0.70;;;16.90;99.90;;;;;;4999489;28;20436;-70
2023/04/23 08:55:59;;;;;;;0.90;0.90;;;17.20;99.90;;;;;;4997259;28;20437;-70
2023/04/23 08:58:29;;;;;;;1.38;0.88;;;18.10;99.90;;;;;;5003182;28;20445;-71
2023/04/23 09:00:57;;;;;;;0.63;0.63;;;18.20;99.90;;;;;;4997025;28;20443;-69
2023/04/23 09:03:27;;;;;;;0.98;0.98;;;17.70;99.90;;;;;;4999950;28;20429;-70
2023/04/23 09:05:55;;;;;;;1.40;0.90;;;17.00;99.90;;;;;;4984474;28;20446;-70
2023/04/23 09:08:22;;;;;;;0.80;0.80;;;17.20;99.90;;;;;;4999815;28;20512;-70
2023/04/23 09:10:51;;;;;;;0.63;0.63;;;17.90;99.90;;;;;;5000528;28;20457;-70
2023/04/23 09:13:18;;;;;;;0.73;0.73;;;18.30;99.90;;;;;;4984676;28;20439;-70
2023/04/23 09:15:44;;;;;;;0.88;0.88;;;17.80;99.90;;;;;;4984904;28;20437;-70
2023/04/23 09:18:17;;;;;;;0.93;0.90;;;17.20;99.90;;;;;;4998730;28;20440;-70
2023/04/23 09:20:44;;;;;;;0.70;0.70;;;16.90;99.90;;;;;;5000617;28;20438;-70
2023/04/23 09:23:14;;;;;;;0.80;0.80;;;17.00;99.90;;;;;;4998382;28;20515;-70
2023/04/23 09:25:41;;;;;;;0.85;0.85;;;17.50;99.90;;;;;;5001426;28;20446;-70
2023/04/23 09:28:09;;;;;;;0.70;0.70;;;17.60;99.90;;;;;;5001637;28;20430;-70
2023/04/23 09:30:43;;;;;;;0.77;0.75;;;17.50;99.90;;;;;;4999924;28;20440;-70
2023/04/23 09:33:11;;;;;;;0.77;0.77;;;18.30;99.90;;;;;;5001719;28;20466;-70
2023/04/23 09:35:40;;;;;;;0.60;0.60;;;18.90;99.90;;;;;;4998403;28;20437;-69
2023/04/23 09:38:09;;;;;;;0.75;0.75;;;18.40;99.90;;;;;;5001074;28;20885;-70
2023/04/23 09:40:37;;;;;;;0.60;0.60;;;18.20;99.90;;;;;;5007091;28;20436;-69
2023/04/23 09:43:06;;;;;;;0.70;0.70;;;17.80;99.90;;;;;;5006028;28;20820;-70
2023/04/23 09:45:34;;;;;;;0.80;0.80;;;18.30;99.90;;;;;;5003282;28;20440;-70
2023/04/23 09:48:01;;;;;;;1.30;1.00;;;18.30;99.90;;;;;;5006520;28;20453;-69
2023/04/23 09:50:39;;;;;;;0.80;0.80;;;18.00;99.90;;;;;;4993942;28;20443;-70
2023/04/23 09:53:08;;;;;;;0.73;0.73;;;17.80;99.90;;;;;;5004050;28;20519;-70
2023/04/23 09:55:41;;;;;;;0.93;0.85;;;18.10;99.90;;;;;;5001985;28;20524;-70
2023/04/23 09:58:14;;;;;;;0.70;0.70;;;18.00;99.90;;;;;;5002018;28;20528;-70
2023/04/23 10:00:41;;;;;;;2.00;0.82;;;18.10;99.90;;;;;;5002847;28;20467;-70
2023/04/23 10:03:09;;;;;;;1.23;0.75;;;17.80;99.90;;;;;;5001927;28;20432;-70
2023/04/23 10:05:39;;;;;;;1.00;0.90;;;18.00;99.90;;;;;;5003573;28;20914;-69
2023/04/23 10:08:26;;;;;;;0.60;0.60;;;17.90;99.90;;;;;;5002839;28;20425;-69
2023/04/23 10:10:53;;;;;;;1.00;0.77;;;17.80;99.90;;;;;;5003273;28;20919;-69
2023/04/23 10:13:41;;;;;;;0.67;0.67;;;17.70;99.90;;;;;;5002405;28;21566;-70
2023/04/23 10:16:08;;;;;;;0.55;0.55;;;18.00;99.90;;;;;;5005657;28;20427;-69
2023/04/23 10:18:52;;;;;;;0.63;0.63;;;18.20;99.90;;;;;;5005422;28;20854;-69
2023/04/23 10:21:27;;;;;;;0.50;0.50;;;18.40;99.90;;;;;;5004501;28;20441;-70
2023/04/23 10:24:06;;;;;;;0.60;0.60;;;19.00;99.90;;;;;;5004330;28;20436;-70
2023/04/23 10:26:34;;;;;;;0.60;0.60;;;19.60;99.90;;;;;;5005722;28;20437;-69
2023/04/23 10:29:03;;;;;;;1.05;0.70;;;19.90;99.90;;;;;;5004942;28;20434;-69
2023/04/23 10:31:32;;;;;;;0.77;0.77;;;20.70;99.90;;;;;;5002948;28;20458;-69
2023/04/23 10:34:04;;;;;;;0.60;0.60;;;21.10;99.90;;;;;;5004134;28;20512;-69
2023/04/23 10:36:32;;;;;;;0.70;0.70;;;20.70;99.90;;;;;;5003350;28;20517;-69
2023/04/23 10:39:03;;;;;;;0.77;0.77;;;20.30;99.90;;;;;;4994150;28;20473;-68
2023/04/23 10:41:36;;;;;;;0.70;0.70;;;20.60;99.90;;;;;;5000170;28;20443;-69
2023/04/23 10:44:11;;;;;;;0.50;0.50;;;20.20;99.90;;;;;;5000996;28;20947;-68
2023/04/23 10:46:38;;;;;;;0.85;0.85;;;20.10;99.90;;;;;;5002283;28;20430;-68
2023/04/23 10:49:06;;;;;;;1.00;0.65;;;19.90;99.90;;;;;;5002189;28;20446;-69
2023/04/23 10:51:34;;;;;;;0.52;0.52;;;20.30;99.90;;;;;;4985807;28;20940;-69
2023/04/23 10:54:10;;;;;;;0.50;0.50;;;20.40;99.90;;;;;;5005632;28;20434;-69
2023/04/23 10:56:38;;;;;;;0.60;0.50;;;19.70;99.90;;;;;;4987832;28;20440;-68
2023/04/23 10:59:28;;;;;;;0.75;0.75;;;19.10;99.90;;;;;;5001042;28;20966;-68
2023/04/23 11:01:59;;;;;;;0.68;0.68;;;19.10;99.90;;;;;;4999288;28;20448;-69
2023/04/23 11:04:28;;;;;;;0.50;0.50;;;19.10;99.90;;;;;;4998292;28;20756;-70
2023/04/23 11:07:07;;;;;;;0.85;0.85;;;18.90;99.90;;;;;;5001607;28;20444;-69
2023/04/23 11:09:41;;;;;;;0.40;0.40;;;18.90;99.90;;;;;;5004586;28;20472;-70
2023/04/23 11:12:30;;;;;;;1.38;0.90;;;18.90;99.90;;;;;;5005981;28;20484;-69
2023/04/23 11:15:01;;;;;;;0.50;0.50;;;18.60;99.90;;;;;;5003117;28;20434;-70
2023/04/23 11:17:33;;;;;;;3.30;0.70;;;18.30;99.90;;;;;;4990587;28;20807;-71
2023/04/23 11:20:21;;;;;;;0.90;0.88;;;18.80;99.90;;;;;;5006168;28;20555;-71
2023/04/23 11:22:51;;;;;;;0.60;0.60;;;19.20;99.90;;;;;;4992773;28;20439;-71
2023/04/23 11:25:20;;;;;;;0.70;0.70;;;19.20;99.90;;;;;;5001764;28;20443;-72
2023/04/23 11:27:50;;;;;;;0.60;0.60;;;18.80;99.90;;;;;;5002122;28;20442;-71
2023/04/23 11:30:28;;;;;;;0.50;0.50;;;18.40;99.90;;;;;;5003082;28;20437;-70
2023/04/23 11:32:58;;;;;;;0.75;0.75;;;18.00;99.90;;;;;;5004446;28;20444;-69
2023/04/23 11:35:30;;;;;;;1.48;0.63;;;18.20;99.90;;;;;;5006145;28;20905;-69
2023/04/23 11:38:00;;;;;;;0.70;0.70;;;18.70;99.90;;;;;;5003299;28;20570;-69
2023/04/23 11:40:29;;;;;;;1.92;0.88;;;19.80;99.90;;;;;;5003375;28;20440;-71
2023/04/23 11:42:57;;;;;;;0.50;0.50;;;20.40;99.90;;;;;;4981998;28;20463;-71
2023/04/23 11:45:25;;;;;;;0.60;0.60;;;20.40;99.90;;;;;;5002503;28;20419;-71
2023/04/23 11:47:54;;;;;;;5.10;0.60;;;20.70;99.90;;;;;;5001516;28;21226;-71
2023/04/23 11:50:31;;;;;;;0.60;0.60;;;20.80;99.90;;;;;;4992101;28;20437;-71
2023/04/23 11:53:07;;;;;;;15.60;0.88;;;20.00;99.90;;;;;;4992407;28;20443;-71
2023/04/23 11:55:34;;;;;;;0.75;0.75;;;20.50;99.90;;;;;;4991782;28;20446;-71
2023/04/23 11:58:05;;;;;;;0.68;0.68;;;21.00;99.90;;;;;;4982587;28;20451;-70
2023/04/23 12:00:31;;;;;;;0.52;0.52;;;20.90;99.90;;;;;;5003074;28;20939;-70
2023/04/23 12:03:05;;;;;;;0.70;0.70;;;20.20;99.90;;;;;;5001692;28;20530;-70
2023/04/23 12:05:35;;;;;;;0.60;0.60;;;19.60;99.90;;;;;;4996212;28;20904;-70
2023/04/23 12:08:16;;;;;;;0.50;0.50;;;19.20;99.90;;;;;;4986371;28;20795;-70
2023/04/23 12:10:45;;;;;;;1.02;0.60;;;19.40;99.90;;;;;;5000276;28;20531;-70
2023/04/23 12:13:23;;;;;;;2.03;0.52;;;19.60;99.90;;;;;;4999927;28;20442;-70
2023/04/23 12:15:55;;;;;;;0.52;0.52;;;19.80;99.90;;;;;;4999952;28;20459;-70
2023/04/23 12:18:34;;;;;;;0.70;0.70;;;19.70;99.90;;;;;;4999563;28;20443;-70
2023/04/23 12:21:19;;;;;;;0.80;0.50;;;20.50;99.90;;;;;;4999715;28;20447;-70
2023/04/23 12:23:50;;;;;;;0.40;0.40;;;20.80;99.90;;;;;;4980931;28;20437;-70
2023/04/23 12:26:20;;;;;;;0.70;0.50;;;20.70;99.90;;;;;;4969909;28;20445;-70
2023/04/23 12:28:50;;;;;;;0.80;0.80;;;20.40;99.90;;;;;;4991930;28;20436;-70
2023/04/23 12:31:22;;;;;;;0.40;0.40;;;20.30;99.90;;;;;;4990242;28;20512;-70
2023/04/23 12:34:00;;;;;;;0.30;0.30;;;20.40;99.90;;;;;;4991336;28;20439;-71
2023/04/23 12:36:30;;;;;;;0.37;0.37;;;20.30;99.90;;;;;;4974474;28;20585;-70
2023/04/23 12:39:22;;;;;;;1.50;0.70;;;20.40;99.90;;;;;;4992436;28;21044;-70
2023/04/23 12:41:54;;;;;;;1.30;0.70;;;19.90;99.90;;;;;;4988649;28;20447;-71
2023/04/23 12:44:21;;;;;;;0.50;0.50;;;20.00;99.90;;;;;;4982175;28;20437;-71
2023/04/23 12:46:56;;;;;;;0.38;0.38;;;20.00;99.90;;;;;;4973294;28;20440;-71
2023/04/23 12:49:25;;;;;;;0.38;0.38;;;20.40;99.90;;;;;;4992878;28;20469;-71
2023/04/23 12:52:01;;;;;;;0.50;0.50;;;20.70;99.90;;;;;;4993333;28;21032;-71
2023/04/23 12:54:35;;;;;;;0.40;0.40;;;21.30;99.90;;;;;;4987800;28;20441;-71
2023/04/23 12:57:04;;;;;;;0.40;0.40;;;21.20;99.90;;;;;;4971022;28;20575;-71
2023/04/23 12:59:31;;;;;;;0.60;0.30;;;20.40;99.50;;;;;;4996645;28;20432;-70